Time;durP1;ratioP1;P1;durP2;ratioP2;P2;SDS_P1;SDS_P2;PMS_P1;PMS_P2;Temp;Humidity;BMP_temperature;BMP_pressure;BME280_temperature;BME280_humidity;BME280_pressure;Samples;Min_cycle;Max_cycle;Signal;HPM_P1;HPM_P2
2021/09/22 00:01:04;;;;;;;0.30;0.30;;;11.70;99.90;;;;;;5070202;28;20200;-73
2021/09/22 00:03:29;;;;;;;0.40;0.40;;;11.60;99.90;;;;;;5070161;28;20211;-73
2021/09/22 00:05:55;;;;;;;0.10;0.10;;;11.50;99.90;;;;;;5070623;28;20196;-73
2021/09/22 00:08:21;;;;;;;0.68;0.68;;;11.60;99.90;;;;;;5070571;28;20188;-73
2021/09/22 00:10:47;;;;;;;0.38;0.38;;;11.60;99.90;;;;;;5070531;28;20196;-73
2021/09/22 00:13:13;;;;;;;0.30;0.20;;;11.70;99.90;;;;;;5070760;28;20164;-73
2021/09/22 00:15:39;;;;;;;0.20;0.20;;;11.70;99.90;;;;;;5070732;28;20508;-73
2021/09/22 00:18:05;;;;;;;0.13;0.13;;;11.60;99.90;;;;;;5072954;28;20593;-74
2021/09/22 00:20:32;;;;;;;0.68;0.68;;;11.60;99.90;;;;;;5089908;28;20226;-73
2021/09/22 00:22:58;;;;;;;0.68;0.68;;;11.50;99.90;;;;;;5090543;28;20228;-73
2021/09/22 00:25:25;;;;;;;0.13;0.13;;;11.40;99.90;;;;;;5090565;28;20153;-73
2021/09/22 00:27:52;;;;;;;0.52;0.43;;;11.40;99.90;;;;;;5090628;28;20232;-74
2021/09/22 00:30:18;;;;;;;0.47;0.30;;;11.40;99.90;;;;;;5090445;28;20199;-74
2021/09/22 00:32:46;;;;;;;0.50;0.50;;;11.40;99.90;;;;;;5090637;28;20191;-73
2021/09/22 00:35:13;;;;;;;0.73;0.73;;;11.40;99.90;;;;;;5090917;28;20183;-74
2021/09/22 00:37:40;;;;;;;0.30;0.30;;;11.40;99.90;;;;;;5091065;28;20174;-74
2021/09/22 00:40:06;;;;;;;0.28;0.25;;;11.50;99.90;;;;;;5091021;28;20192;-73
2021/09/22 00:42:32;;;;;;;0.77;0.55;;;11.60;99.90;;;;;;5090629;28;20160;-74
2021/09/22 00:45:07;;;;;;;1.10;0.63;;;11.50;99.90;;;;;;5082112;28;20168;-74
2021/09/22 00:47:33;;;;;;;1.17;1.10;;;11.50;99.90;;;;;;5070613;28;20164;-74
2021/09/22 00:49:59;;;;;;;0.43;0.43;;;11.40;99.90;;;;;;5070288;28;20216;-74
2021/09/22 00:52:25;;;;;;;0.20;0.20;;;11.50;99.90;;;;;;5070420;28;20188;-73
2021/09/22 00:54:52;;;;;;;0.57;0.57;;;11.50;99.90;;;;;;5070672;28;20161;-74
2021/09/22 00:57:19;;;;;;;2.33;1.17;;;11.40;99.90;;;;;;5070752;28;20161;-73
2021/09/22 00:59:45;;;;;;;1.80;0.98;;;11.40;99.90;;;;;;5070474;28;20209;-73
2021/09/22 01:02:39;;;;;;;0.30;0.30;;;11.30;99.90;;;;;;5070304;28;20157;-73
2021/09/22 01:05:05;;;;;;;0.20;0.20;;;11.30;99.90;;;;;;5068949;28;20176;-73
2021/09/22 01:07:31;;;;;;;0.10;0.10;;;11.30;99.90;;;;;;5070564;28;20157;-73
2021/09/22 01:09:57;;;;;;;0.90;0.80;;;11.20;99.90;;;;;;5070310;28;20189;-74
2021/09/22 01:12:23;;;;;;;0.50;0.50;;;11.20;99.90;;;;;;5070254;28;20169;-74
2021/09/22 01:14:49;;;;;;;1.45;1.15;;;11.20;99.90;;;;;;5070136;28;20157;-74
2021/09/22 01:17:19;;;;;;;0.10;0.10;;;11.20;99.90;;;;;;5069644;28;20173;-74
2021/09/22 01:19:45;;;;;;;0.52;0.52;;;11.30;99.90;;;;;;5085683;28;20208;-74
2021/09/22 01:22:12;;;;;;;0.10;0.10;;;11.30;99.90;;;;;;5089589;28;20160;-73
2021/09/22 01:24:38;;;;;;;0.10;0.10;;;11.20;99.90;;;;;;5089552;28;20160;-74
2021/09/22 01:27:04;;;;;;;0.13;0.13;;;11.20;99.90;;;;;;5089439;28;20568;-74
2021/09/22 01:29:30;;;;;;;1.48;1.35;;;11.20;99.90;;;;;;5089348;28;20222;-74
2021/09/22 01:31:56;;;;;;;0.43;0.43;;;11.20;99.90;;;;;;5088403;28;20164;-74
2021/09/22 01:34:22;;;;;;;0.40;0.40;;;11.10;99.90;;;;;;5089072;28;20164;-74
2021/09/22 01:36:48;;;;;;;0.73;0.20;;;11.10;99.90;;;;;;5089248;28;20160;-74
2021/09/22 01:39:14;;;;;;;0.93;0.93;;;11.10;99.90;;;;;;5088947;28;20191;-74
2021/09/22 01:41:40;;;;;;;0.52;0.52;;;11.10;99.90;;;;;;5089190;28;20164;-74
2021/09/22 01:44:06;;;;;;;0.35;0.35;;;11.20;99.90;;;;;;5087306;28;20160;-74
2021/09/22 01:46:32;;;;;;;0.20;0.20;;;11.10;99.90;;;;;;5051288;28;20180;-74
2021/09/22 01:48:58;;;;;;;0.73;0.50;;;11.20;99.90;;;;;;5069015;28;20191;-74
2021/09/22 01:51:24;;;;;;;0.20;0.20;;;11.20;99.90;;;;;;5068685;28;20721;-74
2021/09/22 01:53:50;;;;;;;0.35;0.35;;;11.10;99.90;;;;;;5068782;28;20165;-74
2021/09/22 01:56:16;;;;;;;0.30;0.30;;;11.10;99.90;;;;;;5068587;28;20156;-74
2021/09/22 01:58:42;;;;;;;0.80;0.75;;;11.10;99.90;;;;;;5067616;28;20214;-73
2021/09/22 02:01:13;;;;;;;0.25;0.25;;;11.20;99.90;;;;;;5068364;28;20234;-74
2021/09/22 02:03:40;;;;;;;1.02;0.60;;;11.20;99.90;;;;;;5068436;28;20168;-74
2021/09/22 02:06:06;;;;;;;0.25;0.25;;;11.10;99.90;;;;;;5068449;28;20271;-74
2021/09/22 02:08:32;;;;;;;0.50;0.25;;;11.30;99.90;;;;;;5068474;28;20165;-74
2021/09/22 02:10:59;;;;;;;0.63;0.63;;;11.30;99.90;;;;;;5068282;28;20253;-74
2021/09/22 02:13:25;;;;;;;0.65;0.65;;;11.20;99.90;;;;;;5068436;28;20191;-74
2021/09/22 02:15:51;;;;;;;0.50;0.50;;;11.10;99.90;;;;;;5068175;28;20161;-74
2021/09/22 02:18:17;;;;;;;0.15;0.15;;;11.10;99.90;;;;;;5072081;28;20226;-74
2021/09/22 02:20:43;;;;;;;1.23;1.10;;;11.10;99.90;;;;;;5088126;28;20217;-74
2021/09/22 02:23:09;;;;;;;0.63;0.63;;;11.10;99.90;;;;;;5088269;28;20159;-74
2021/09/22 02:25:34;;;;;;;4.57;1.98;;;11.00;99.90;;;;;;5070072;28;20160;-74
2021/09/22 02:28:00;;;;;;;1.60;0.80;;;10.90;99.90;;;;;;5088129;28;20186;-74
2021/09/22 02:30:26;;;;;;;0.10;0.10;;;10.90;99.90;;;;;;5087947;28;20301;-74
2021/09/22 02:32:52;;;;;;;0.82;0.82;;;10.90;99.90;;;;;;5088154;28;20168;-75
2021/09/22 02:35:18;;;;;;;0.30;0.30;;;10.90;99.90;;;;;;5087796;28;20246;-73
2021/09/22 02:37:44;;;;;;;0.20;0.20;;;11.00;99.90;;;;;;5087792;28;20164;-73
2021/09/22 02:40:14;;;;;;;0.20;0.20;;;10.80;99.90;;;;;;5069987;28;20196;-74
2021/09/22 02:42:41;;;;;;;0.70;0.65;;;10.80;99.90;;;;;;5087982;28;20152;-74
2021/09/22 02:45:09;;;;;;;0.75;0.75;;;10.80;99.90;;;;;;5077338;28;20180;-73
2021/09/22 02:47:34;;;;;;;0.30;0.30;;;10.70;99.90;;;;;;5067637;28;20187;-73
2021/09/22 02:50:00;;;;;;;2.85;1.95;;;10.70;99.90;;;;;;5067667;28;20196;-73
2021/09/22 02:52:27;;;;;;;0.20;0.20;;;10.70;99.90;;;;;;5068083;28;20187;-75
2021/09/22 02:54:53;;;;;;;0.47;0.47;;;10.70;99.90;;;;;;5067667;28;20157;-76
2021/09/22 02:57:19;;;;;;;0.50;0.47;;;10.70;99.90;;;;;;5067398;28;20216;-73
2021/09/22 02:59:45;;;;;;;0.20;0.20;;;10.60;99.90;;;;;;5067469;28;20200;-74
2021/09/22 03:02:10;;;;;;;0.28;0.28;;;10.70;99.90;;;;;;5067626;28;20157;-74
2021/09/22 03:04:36;;;;;;;0.43;0.38;;;10.60;99.90;;;;;;5067584;28;20235;-74
2021/09/22 03:07:02;;;;;;;1.00;1.00;;;10.40;99.90;;;;;;5067610;28;20156;-74
2021/09/22 03:09:29;;;;;;;1.25;1.25;;;10.40;99.90;;;;;;5049422;28;20200;-73
2021/09/22 03:11:55;;;;;;;1.25;1.15;;;10.20;99.90;;;;;;5067244;28;20188;-73
2021/09/22 03:14:21;;;;;;;0.22;0.22;;;10.20;99.90;;;;;;5067526;28;20176;-73
2021/09/22 03:16:47;;;;;;;0.55;0.55;;;10.20;99.90;;;;;;5067960;28;20263;-73
2021/09/22 03:19:13;;;;;;;0.55;0.55;;;10.20;99.90;;;;;;5056684;28;20200;-74
2021/09/22 03:21:39;;;;;;;0.10;0.10;;;10.00;99.90;;;;;;5067593;28;20164;-73
2021/09/22 03:24:05;;;;;;;1.00;0.63;;;10.10;99.90;;;;;;5067362;28;20180;-73
2021/09/22 03:26:31;;;;;;;0.68;0.68;;;10.10;99.90;;;;;;5067511;28;20165;-73
2021/09/22 03:28:57;;;;;;;0.90;0.90;;;10.10;99.90;;;;;;5066307;28;20169;-73
2021/09/22 03:31:23;;;;;;;0.60;0.60;;;10.10;99.90;;;;;;5067356;28;20196;-73
2021/09/22 03:33:50;;;;;;;0.55;0.55;;;10.10;99.90;;;;;;5067616;28;20167;-74
2021/09/22 03:36:16;;;;;;;0.32;0.32;;;10.00;99.90;;;;;;5067890;28;20169;-74
2021/09/22 03:38:42;;;;;;;0.80;0.80;;;10.10;99.90;;;;;;5067511;28;20204;-73
2021/09/22 03:41:08;;;;;;;0.50;0.50;;;10.00;99.90;;;;;;5066655;28;20211;-73
2021/09/22 03:43:34;;;;;;;1.27;1.17;;;10.00;99.90;;;;;;5062682;28;20172;-74
2021/09/22 03:46:00;;;;;;;0.20;0.20;;;9.90;99.90;;;;;;5032410;28;20176;-75
2021/09/22 03:48:26;;;;;;;0.47;0.47;;;9.80;99.90;;;;;;5067398;28;20173;-74
2021/09/22 03:50:53;;;;;;;0.17;0.17;;;9.80;99.90;;;;;;5067469;28;20225;-72
2021/09/22 03:53:20;;;;;;;4.65;0.90;;;9.80;99.90;;;;;;5033047;28;20283;-73
2021/09/22 03:55:47;;;;;;;1.80;1.42;;;9.80;99.90;;;;;;5067850;28;20188;-73
2021/09/22 03:58:14;;;;;;;1.63;1.20;;;9.70;99.90;;;;;;5071153;28;20192;-74
2021/09/22 04:00:40;;;;;;;0.85;0.85;;;9.70;99.90;;;;;;5070969;28;20154;-75
2021/09/22 04:03:06;;;;;;;2.72;1.42;;;9.70;99.90;;;;;;5070821;28;20161;-73
2021/09/22 04:05:33;;;;;;;0.68;0.68;;;9.70;99.90;;;;;;5070789;28;20248;-74
2021/09/22 04:07:59;;;;;;;0.47;0.47;;;9.60;99.90;;;;;;5052593;28;20168;-75
2021/09/22 04:10:25;;;;;;;0.55;0.55;;;9.60;99.90;;;;;;5070598;28;20189;-75
2021/09/22 04:12:52;;;;;;;3.10;0.70;;;9.60;99.90;;;;;;5070528;28;20191;-75
2021/09/22 04:15:18;;;;;;;12.15;1.90;;;9.50;99.90;;;;;;5070339;28;20228;-75
2021/09/22 04:17:44;;;;;;;1.48;1.48;;;9.50;99.90;;;;;;5070288;28;20165;-74
2021/09/22 04:20:11;;;;;;;0.40;0.40;;;9.60;99.90;;;;;;5070372;28;20157;-74
2021/09/22 04:22:39;;;;;;;0.75;0.75;;;9.70;99.90;;;;;;5070573;28;20163;-74
2021/09/22 04:25:07;;;;;;;2.95;1.90;;;9.70;99.90;;;;;;5070288;28;20559;-74
2021/09/22 04:27:33;;;;;;;0.95;0.93;;;9.70;99.90;;;;;;5069215;28;20157;-74
2021/09/22 04:29:59;;;;;;;0.68;0.68;;;9.80;99.90;;;;;;5069421;28;20222;-75
2021/09/22 04:32:25;;;;;;;0.40;0.40;;;9.80;99.90;;;;;;5070037;28;20219;-74
2021/09/22 04:34:51;;;;;;;0.70;0.70;;;9.80;99.90;;;;;;5070300;28;20191;-75
2021/09/22 04:37:17;;;;;;;1.17;0.75;;;9.80;99.90;;;;;;5070131;28;20175;-75
2021/09/22 04:39:43;;;;;;;0.30;0.30;;;9.70;99.90;;;;;;5070173;28;20504;-75
2021/09/22 04:42:09;;;;;;;0.73;0.73;;;9.60;99.90;;;;;;5070089;28;20236;-75
2021/09/22 04:44:35;;;;;;;0.30;0.30;;;9.50;99.90;;;;;;5069959;28;20173;-75
2021/09/22 04:47:01;;;;;;;0.65;0.65;;;9.50;99.90;;;;;;5052298;28;20189;-76
2021/09/22 04:49:27;;;;;;;0.52;0.52;;;9.60;99.90;;;;;;5070114;28;20275;-75
2021/09/22 04:51:53;;;;;;;0.40;0.40;;;9.40;99.90;;;;;;5070086;28;20274;-75
2021/09/22 04:54:19;;;;;;;0.20;0.20;;;9.50;99.90;;;;;;5069926;28;20529;-75
2021/09/22 04:56:45;;;;;;;0.20;0.20;;;9.50;99.90;;;;;;5069917;28;20214;-74
2021/09/22 04:59:11;;;;;;;0.63;0.63;;;9.60;99.90;;;;;;5070412;28;20641;-75
2021/09/22 05:01:39;;;;;;;1.38;1.15;;;9.70;99.90;;;;;;5070431;28;20161;-74
2021/09/22 05:04:07;;;;;;;4.10;1.45;;;9.60;99.90;;;;;;5069995;28;20179;-75
2021/09/22 05:06:34;;;;;;;0.22;0.22;;;9.60;99.90;;;;;;5069852;28;20252;-74
2021/09/22 05:09:00;;;;;;;1.33;1.23;;;9.60;99.90;;;;;;5069914;28;20189;-74
2021/09/22 05:11:27;;;;;;;0.73;0.73;;;9.50;99.90;;;;;;5070136;28;20191;-75
2021/09/22 05:13:53;;;;;;;1.58;0.80;;;9.50;99.90;;;;;;5070162;28;20207;-74
2021/09/22 05:16:18;;;;;;;0.85;0.85;;;9.50;99.90;;;;;;5069893;28;20218;-75
2021/09/22 05:18:44;;;;;;;0.38;0.38;;;9.60;99.90;;;;;;5069689;28;20216;-74
2021/09/22 05:21:10;;;;;;;2.05;1.35;;;9.60;99.90;;;;;;5069987;28;20161;-75
2021/09/22 05:23:36;;;;;;;0.47;0.47;;;9.80;99.90;;;;;;5069541;28;20232;-74
2021/09/22 05:26:02;;;;;;;0.50;0.50;;;10.00;99.90;;;;;;5069485;28;20526;-75
2021/09/22 05:28:28;;;;;;;0.20;0.20;;;10.10;99.90;;;;;;5069445;28;20187;-73
2021/09/22 05:30:54;;;;;;;0.20;0.20;;;10.10;99.90;;;;;;5069663;28;20164;-76
2021/09/22 05:33:20;;;;;;;1.02;1.02;;;10.20;99.90;;;;;;5069382;28;20161;-74
2021/09/22 05:35:47;;;;;;;1.52;1.42;;;10.30;99.90;;;;;;5069254;28;20254;-74
2021/09/22 05:38:13;;;;;;;1.00;1.00;;;10.30;99.90;;;;;;5068540;28;20224;-74
2021/09/22 05:40:39;;;;;;;0.32;0.32;;;10.40;99.90;;;;;;5068717;28;20161;-74
2021/09/22 05:43:06;;;;;;;0.20;0.20;;;10.40;99.90;;;;;;5068976;28;20582;-74
2021/09/22 05:45:32;;;;;;;0.88;0.88;;;10.40;99.90;;;;;;5050365;28;20234;-75
2021/09/22 05:47:57;;;;;;;0.10;0.10;;;10.40;99.90;;;;;;5068582;28;20165;-75
2021/09/22 05:50:23;;;;;;;0.25;0.25;;;10.40;99.90;;;;;;5068244;28;20220;-76
2021/09/22 05:52:49;;;;;;;1.08;1.08;;;10.60;99.90;;;;;;5068641;28;20167;-75
2021/09/22 05:55:15;;;;;;;2.17;0.95;;;10.50;99.90;;;;;;5068539;28;20192;-74
2021/09/22 05:57:42;;;;;;;0.32;0.32;;;10.60;99.90;;;;;;5068426;28;20184;-76
2021/09/22 06:00:08;;;;;;;1.65;1.55;;;10.70;99.90;;;;;;5068516;28;20160;-75
2021/09/22 06:02:34;;;;;;;1.55;1.45;;;10.70;99.90;;;;;;5068443;28;20157;-75
2021/09/22 06:05:00;;;;;;;1.08;0.60;;;10.80;99.90;;;;;;5068206;28;20232;-75
2021/09/22 06:07:26;;;;;;;34.65;3.40;;;10.60;99.90;;;;;;5068203;28;20220;-74
2021/09/22 06:09:52;;;;;;;0.43;0.43;;;10.70;99.90;;;;;;5068181;28;20258;-75
2021/09/22 06:12:19;;;;;;;2.10;1.10;;;10.80;99.90;;;;;;5068157;28;20190;-75
2021/09/22 06:14:45;;;;;;;2.03;1.45;;;11.00;99.90;;;;;;5068286;28;20187;-75
2021/09/22 06:17:11;;;;;;;0.50;0.50;;;11.00;99.90;;;;;;5068197;28;20197;-75
2021/09/22 06:19:37;;;;;;;0.98;0.85;;;11.10;99.90;;;;;;5067528;28;20219;-75
2021/09/22 06:22:03;;;;;;;1.00;1.00;;;11.10;99.90;;;;;;5068026;28;20171;-75
2021/09/22 06:24:29;;;;;;;0.70;0.70;;;11.20;99.90;;;;;;5068226;28;20524;-74
2021/09/22 06:26:55;;;;;;;0.55;0.55;;;11.30;99.90;;;;;;5067813;28;20191;-74
2021/09/22 06:29:21;;;;;;;0.88;0.88;;;11.50;99.90;;;;;;5067906;28;20165;-75
2021/09/22 06:31:47;;;;;;;0.60;0.60;;;11.70;99.90;;;;;;5067826;28;20178;-75
2021/09/22 06:34:13;;;;;;;0.75;0.75;;;11.90;99.90;;;;;;5067937;28;20180;-76
2021/09/22 06:36:39;;;;;;;0.20;0.20;;;12.00;99.90;;;;;;5067092;28;20207;-76
2021/09/22 06:39:06;;;;;;;3.50;2.47;;;12.10;99.90;;;;;;5046706;28;20202;-75
2021/09/22 06:41:33;;;;;;;0.80;0.80;;;12.20;99.90;;;;;;5064991;28;20195;-76
2021/09/22 06:44:00;;;;;;;0.43;0.43;;;12.20;99.90;;;;;;5065159;28;20161;-74
2021/09/22 06:46:27;;;;;;;0.10;0.10;;;12.30;99.90;;;;;;5065671;28;20161;-74
2021/09/22 06:48:53;;;;;;;0.52;0.52;;;12.40;99.90;;;;;;5065601;28;20251;-74
2021/09/22 06:51:19;;;;;;;8.27;2.67;;;12.30;99.90;;;;;;5065096;28;20224;-74
2021/09/22 06:53:45;;;;;;;1.05;1.05;;;12.40;99.90;;;;;;5049038;28;20169;-75
2021/09/22 06:56:12;;;;;;;0.90;0.70;;;12.30;99.90;;;;;;5066633;28;20200;-76
2021/09/22 06:58:38;;;;;;;0.20;0.20;;;12.30;99.90;;;;;;5067446;28;20195;-76
2021/09/22 07:01:03;;;;;;;0.28;0.28;;;12.40;99.90;;;;;;5049257;28;20168;-76
2021/09/22 07:03:30;;;;;;;1.08;1.08;;;12.50;99.90;;;;;;5067603;28;20156;-76
2021/09/22 07:05:56;;;;;;;0.30;0.30;;;12.40;99.90;;;;;;5067501;28;20214;-76
2021/09/22 07:08:22;;;;;;;0.95;0.95;;;12.40;99.90;;;;;;5067425;28;20653;-76
2021/09/22 07:10:48;;;;;;;3.97;1.17;;;12.40;99.90;;;;;;5067793;28;20271;-75
2021/09/22 07:13:14;;;;;;;0.50;0.47;;;12.40;99.90;;;;;;5067466;28;20165;-75
2021/09/22 07:15:41;;;;;;;0.82;0.82;;;12.20;99.90;;;;;;5067225;28;20208;-74
2021/09/22 07:18:06;;;;;;;1.20;1.17;;;12.50;99.90;;;;;;5067603;28;20568;-74
2021/09/22 07:20:32;;;;;;;0.80;0.63;;;12.40;99.90;;;;;;5067407;28;20244;-74
2021/09/22 07:22:59;;;;;;;1.63;1.30;;;12.40;99.90;;;;;;5067555;28;20187;-74
2021/09/22 07:25:25;;;;;;;1.52;1.00;;;12.60;99.90;;;;;;5067531;28;20188;-74
2021/09/22 07:27:51;;;;;;;0.80;0.80;;;12.80;99.90;;;;;;5067648;28;20168;-74
2021/09/22 07:30:17;;;;;;;1.00;0.88;;;12.90;99.90;;;;;;5069454;28;20156;-74
2021/09/22 07:32:45;;;;;;;1.27;1.17;;;13.00;99.90;;;;;;5071285;28;20164;-74
2021/09/22 07:35:12;;;;;;;0.40;0.40;;;13.10;99.90;;;;;;5071449;28;20192;-75
2021/09/22 07:37:39;;;;;;;2.15;1.45;;;13.40;99.90;;;;;;5071225;28;20172;-75
2021/09/22 07:40:06;;;;;;;0.30;0.30;;;13.60;99.90;;;;;;5071587;28;20203;-74
2021/09/22 07:42:36;;;;;;;1.65;1.55;;;13.00;99.90;;;;;;5071535;28;20157;-74
2021/09/22 07:45:04;;;;;;;2.88;2.20;;;13.00;99.90;;;;;;5053855;28;20173;-74
2021/09/22 07:47:30;;;;;;;0.80;0.80;;;13.00;99.90;;;;;;5071416;28;20188;-74
2021/09/22 07:49:56;;;;;;;0.90;0.85;;;13.00;99.90;;;;;;5070966;28;20172;-74
2021/09/22 07:52:21;;;;;;;6.07;1.27;;;13.00;99.90;;;;;;5071105;28;20199;-75
2021/09/22 07:54:47;;;;;;;1.50;1.42;;;13.30;99.90;;;;;;5070907;28;20165;-74
2021/09/22 07:57:13;;;;;;;1.20;1.10;;;13.50;99.90;;;;;;5070907;28;20215;-74
2021/09/22 07:59:40;;;;;;;0.30;0.30;;;13.80;99.90;;;;;;5052928;28;20208;-74
2021/09/22 08:02:06;;;;;;;0.10;0.10;;;14.20;99.90;;;;;;5071000;28;20618;-75
2021/09/22 08:04:32;;;;;;;0.98;0.52;;;14.30;99.90;;;;;;5070759;28;20234;-75
2021/09/22 08:06:59;;;;;;;0.35;0.35;;;14.30;99.90;;;;;;5070493;28;20311;-75
2021/09/22 08:09:26;;;;;;;0.55;0.55;;;14.20;99.90;;;;;;5070702;28;20196;-75
2021/09/22 08:11:52;;;;;;;0.68;0.68;;;14.40;99.90;;;;;;5070457;28;20173;-75
2021/09/22 08:14:18;;;;;;;0.63;0.63;;;14.60;99.90;;;;;;5070615;28;20180;-75
2021/09/22 08:16:45;;;;;;;0.57;0.57;;;14.80;99.90;;;;;;5070347;28;20267;-75
2021/09/22 08:19:14;;;;;;;1.45;0.45;;;15.10;99.90;;;;;;5070742;28;20188;-76
2021/09/22 08:21:41;;;;;;;1.85;1.20;;;15.40;99.90;;;;;;5070702;28;20167;-75
2021/09/22 08:24:07;;;;;;;1.00;1.00;;;15.60;99.90;;;;;;5070534;28;20622;-75
2021/09/22 08:26:32;;;;;;;0.68;0.68;;;16.40;99.90;;;;;;5070145;28;20200;-74
2021/09/22 08:28:58;;;;;;;0.75;0.75;;;16.90;99.90;;;;;;5070141;28;20172;-74
2021/09/22 08:31:24;;;;;;;0.47;0.47;;;16.90;99.90;;;;;;5070193;28;20206;-74
2021/09/22 08:33:51;;;;;;;11.60;1.67;;;16.60;99.90;;;;;;5070219;28;20169;-73
2021/09/22 08:36:17;;;;;;;1.58;1.48;;;16.40;99.90;;;;;;5070068;28;20256;-75
2021/09/22 08:38:43;;;;;;;0.90;0.90;;;15.90;99.90;;;;;;5070226;28;20219;-74
2021/09/22 08:41:08;;;;;;;0.00;0.00;;;16.00;99.90;;;;;;5069569;28;20161;-74
2021/09/22 08:43:35;;;;;;;0.47;0.47;;;16.10;99.90;;;;;;5070096;28;20191;-74
2021/09/22 08:46:01;;;;;;;0.10;0.10;;;16.10;99.90;;;;;;5070203;28;20188;-74
2021/09/22 08:48:27;;;;;;;2.00;0.38;;;16.10;99.90;;;;;;5070084;28;20168;-74
2021/09/22 08:50:55;;;;;;;0.08;0.08;;;16.00;99.90;;;;;;5070109;28;20240;-75
2021/09/22 08:53:21;;;;;;;1.00;0.98;;;15.90;99.90;;;;;;5070164;28;20499;-75
2021/09/22 08:55:47;;;;;;;3.30;0.85;;;15.80;99.90;;;;;;5069845;28;20189;-75
2021/09/22 08:58:13;;;;;;;0.10;0.10;;;15.80;99.90;;;;;;5069806;28;20193;-75
2021/09/22 09:00:40;;;;;;;0.10;0.10;;;15.80;99.90;;;;;;5051787;28;20240;-75
2021/09/22 09:03:06;;;;;;;0.32;0.32;;;15.80;99.90;;;;;;5069832;28;20202;-75
2021/09/22 09:05:32;;;;;;;0.60;0.60;;;15.80;99.90;;;;;;5069699;28;20219;-75
2021/09/22 09:08:00;;;;;;;0.55;0.55;;;15.70;99.90;;;;;;5069673;28;20161;-75
2021/09/22 09:10:31;;;;;;;0.10;0.10;;;15.70;99.90;;;;;;5069711;28;20157;-74
2021/09/22 09:13:01;;;;;;;0.28;0.28;;;15.70;99.90;;;;;;5069670;28;20176;-75
2021/09/22 09:15:36;;;;;;;1.02;0.95;;;15.80;99.90;;;;;;5047986;28;20205;-75
2021/09/22 09:18:18;;;;;;;0.47;0.47;;;16.00;99.90;;;;;;5049231;28;20169;-75
2021/09/22 09:20:49;;;;;;;0.88;0.88;;;15.90;99.90;;;;;;5049057;28;20172;-76
2021/09/22 09:23:19;;;;;;;0.28;0.28;;;15.60;99.90;;;;;;5049493;28;20303;-74
2021/09/22 09:26:01;;;;;;;0.65;0.65;;;15.60;99.90;;;;;;5049168;28;20197;-77
2021/09/22 09:28:31;;;;;;;0.50;0.50;;;15.60;99.90;;;;;;5049524;28;20164;-75
2021/09/22 09:31:11;;;;;;;0.40;0.40;;;15.70;99.90;;;;;;5049423;28;20165;-75
2021/09/22 09:34:08;;;;;;;0.20;0.20;;;15.80;99.90;;;;;;5049386;28;20232;-75
2021/09/22 09:36:35;;;;;;;0.20;0.20;;;15.90;99.90;;;;;;5046112;28;20205;-76
2021/09/22 09:39:13;;;;;;;0.10;0.10;;;16.00;99.90;;;;;;5048857;28;20189;-75
2021/09/22 09:41:51;;;;;;;0.65;0.65;;;16.10;99.90;;;;;;5048966;28;20173;-75
2021/09/22 09:44:26;;;;;;;0.15;0.15;;;16.00;99.90;;;;;;5051989;28;20170;-75
2021/09/22 09:46:55;;;;;;;0.10;0.10;;;15.80;99.90;;;;;;5068764;28;20198;-75
2021/09/22 09:49:28;;;;;;;0.60;0.60;;;15.70;99.90;;;;;;5069043;28;20649;-75
2021/09/22 09:52:00;;;;;;;0.35;0.35;;;15.70;99.90;;;;;;5068884;28;20283;-75
2021/09/22 09:54:28;;;;;;;0.10;0.10;;;15.70;99.90;;;;;;5068351;28;20172;-76
2021/09/22 09:57:16;;;;;;;0.15;0.15;;;15.80;99.90;;;;;;5068988;28;20169;-76
2021/09/22 09:59:53;;;;;;;0.57;0.57;;;15.90;99.90;;;;;;5068581;28;20644;-77
2021/09/22 10:02:31;;;;;;;0.00;0.00;;;16.00;99.90;;;;;;5068408;28;20214;-74
2021/09/22 10:04:58;;;;;;;0.50;0.50;;;15.90;99.90;;;;;;5068449;28;20645;-75
2021/09/22 10:07:26;;;;;;;0.25;0.25;;;16.20;99.90;;;;;;5068377;28;20161;-75
2021/09/22 10:09:53;;;;;;;0.10;0.10;;;16.00;99.90;;;;;;5068401;28;20183;-76
2021/09/22 10:12:19;;;;;;;0.20;0.20;;;16.10;99.90;;;;;;5068197;28;20259;-76
2021/09/22 10:14:48;;;;;;;0.10;0.10;;;16.40;99.90;;;;;;5068003;28;20230;-77
2021/09/22 10:17:16;;;;;;;1.08;1.08;;;16.50;99.90;;;;;;5068077;28;20630;-76
2021/09/22 10:19:46;;;;;;;0.13;0.13;;;16.90;99.90;;;;;;5068164;28;20196;-74
2021/09/22 10:22:13;;;;;;;0.30;0.30;;;16.80;99.90;;;;;;5068106;28;20196;-74
2021/09/22 10:24:42;;;;;;;1.25;0.73;;;17.10;99.90;;;;;;5068052;28;20606;-76
2021/09/22 10:27:13;;;;;;;0.10;0.10;;;17.20;99.90;;;;;;5068118;28;20153;-76
2021/09/22 10:29:58;;;;;;;0.20;0.20;;;17.90;99.90;;;;;;5068093;28;20594;-76
2021/09/22 10:32:41;;;;;;;0.20;0.20;;;18.60;99.90;;;;;;5067937;28;20219;-76
2021/09/22 10:35:25;;;;;;;0.65;0.65;;;19.30;99.90;;;;;;5068000;28;20156;-76
2021/09/22 10:38:21;;;;;;;0.57;0.57;;;19.50;99.90;;;;;;5067816;28;20168;-75
2021/09/22 10:40:56;;;;;;;0.00;0.00;;;18.70;99.90;;;;;;5029921;28;20192;-76
2021/09/22 10:43:24;;;;;;;0.28;0.28;;;18.50;99.90;;;;;;5067476;28;20206;-77
2021/09/22 10:46:11;;;;;;;0.00;0.00;;;17.70;99.90;;;;;;5067834;28;20195;-76
2021/09/22 10:48:40;;;;;;;0.43;0.43;;;17.80;99.90;;;;;;5068182;28;20157;-75
2021/09/22 10:51:09;;;;;;;0.20;0.20;;;18.30;99.90;;;;;;5067369;28;20227;-79
2021/09/22 10:53:41;;;;;;;0.00;0.00;;;18.60;99.90;;;;;;5067947;28;20164;-78
2021/09/22 10:56:06;;;;;;;0.20;0.20;;;18.10;99.90;;;;;;5067899;28;20159;-77
2021/09/22 10:58:46;;;;;;;0.10;0.10;;;17.60;99.90;;;;;;5067871;28;20192;-79
2021/09/22 11:01:32;;;;;;;0.00;0.00;;;17.30;99.90;;;;;;5067815;28;20183;-77
2021/09/22 11:03:59;;;;;;;0.30;0.30;;;17.40;99.90;;;;;;5067973;28;20173;-78
2021/09/22 11:06:48;;;;;;;0.00;0.00;;;17.70;99.90;;;;;;5075418;28;20657;-79
2021/09/22 11:09:17;;;;;;;0.17;0.17;;;17.50;99.90;;;;;;5047837;28;20218;-78
2021/09/22 11:14:32;;;;;;;1.35;0.55;;;18.20;99.90;;;;;;5074711;28;20239;-78
2021/09/22 11:17:00;;;;;;;0.38;0.38;;;18.30;99.90;;;;;;5074109;28;20153;-78
2021/09/22 11:19:27;;;;;;;0.00;0.00;;;19.00;99.90;;;;;;5074255;28;20188;-77
2021/09/22 11:21:54;;;;;;;0.00;0.00;;;19.30;99.90;;;;;;5074091;28;20273;-76
2021/09/22 11:24:23;;;;;;;0.10;0.10;;;18.70;99.90;;;;;;5074282;28;20161;-76
2021/09/22 11:26:55;;;;;;;0.10;0.10;;;18.50;99.90;;;;;;5074212;28;20207;-78
2021/09/22 11:29:34;;;;;;;0.30;0.30;;;17.80;99.90;;;;;;5074192;28;20161;-77
2021/09/22 11:32:22;;;;;;;0.03;0.03;;;17.90;99.90;;;;;;5074270;28;20627;-76
2021/09/22 11:34:49;;;;;;;1.35;0.30;;;18.20;99.90;;;;;;5074383;28;20182;-77
2021/09/22 11:37:15;;;;;;;0.00;0.00;;;17.90;99.90;;;;;;5074358;28;20233;-77
2021/09/22 11:39:42;;;;;;;0.22;0.22;;;18.50;99.90;;;;;;5074045;28;20295;-76
2021/09/22 11:42:10;;;;;;;0.00;0.00;;;18.00;99.90;;;;;;5074331;28;20263;-76
2021/09/22 11:44:38;;;;;;;0.10;0.10;;;18.20;99.90;;;;;;5074132;28;20228;-76
2021/09/22 11:47:07;;;;;;;0.85;0.38;;;17.80;99.90;;;;;;5074146;28;20153;-76
2021/09/22 11:49:35;;;;;;;0.00;0.00;;;18.30;99.90;;;;;;5074320;28;20167;-76
2021/09/22 11:52:19;;;;;;;0.00;0.00;;;18.30;99.90;;;;;;5073956;28;20228;-76
2021/09/22 11:54:56;;;;;;;0.00;0.00;;;18.20;99.90;;;;;;5074184;28;20163;-76
2021/09/22 11:57:28;;;;;;;0.00;0.00;;;18.10;99.90;;;;;;5074179;28;20179;-76
2021/09/22 11:59:55;;;;;;;0.00;0.00;;;17.70;99.90;;;;;;5073844;28;20645;-77
2021/09/22 12:02:26;;;;;;;0.20;0.20;;;17.60;99.90;;;;;;5073761;28;20188;-76
2021/09/22 12:04:52;;;;;;;0.45;0.45;;;17.60;99.90;;;;;;5073660;28;20168;-76
2021/09/22 12:07:31;;;;;;;0.65;0.65;;;18.00;99.90;;;;;;5073619;28;20165;-76
2021/09/22 12:10:01;;;;;;;0.00;0.00;;;17.40;99.90;;;;;;5073563;28;20157;-76
2021/09/22 12:12:34;;;;;;;0.22;0.22;;;17.10;99.90;;;;;;5073791;28;20215;-79
2021/09/22 12:15:01;;;;;;;0.00;0.00;;;17.00;99.90;;;;;;5073772;28;20179;-76
2021/09/22 12:17:33;;;;;;;0.25;0.25;;;17.00;99.90;;;;;;5070123;28;20157;-76
2021/09/22 12:20:02;;;;;;;0.05;0.05;;;16.90;99.90;;;;;;5052642;28;20177;-77
2021/09/22 12:22:33;;;;;;;0.05;0.05;;;16.60;99.90;;;;;;5070431;28;20203;-78
2021/09/22 12:25:00;;;;;;;0.10;0.10;;;16.50;99.90;;;;;;5070499;28;20168;-77
2021/09/22 12:27:29;;;;;;;0.00;0.00;;;16.50;99.90;;;;;;5070362;28;20167;-76
2021/09/22 12:30:07;;;;;;;0.10;0.10;;;16.60;99.90;;;;;;5070480;28;20183;-75
2021/09/22 12:32:48;;;;;;;0.10;0.10;;;16.70;99.90;;;;;;5070464;28;20199;-76
2021/09/22 12:35:15;;;;;;;0.05;0.05;;;16.60;99.90;;;;;;5070278;28;20165;-76
2021/09/22 12:37:41;;;;;;;1.08;0.50;;;16.60;99.90;;;;;;5070391;28;20224;-75
2021/09/22 12:40:12;;;;;;;0.38;0.38;;;16.60;99.90;;;;;;5070512;28;20202;-75
2021/09/22 12:42:44;;;;;;;0.65;0.65;;;16.70;99.90;;;;;;5052321;28;20668;-75
2021/09/22 12:45:16;;;;;;;0.00;0.00;;;16.70;99.90;;;;;;5052897;28;20191;-77
2021/09/22 12:47:57;;;;;;;0.10;0.10;;;16.60;99.90;;;;;;5070280;28;20156;-76
2021/09/22 12:50:30;;;;;;;2.28;1.45;;;16.60;99.90;;;;;;5070489;28;20212;-76
2021/09/22 12:53:05;;;;;;;0.00;0.00;;;16.70;99.90;;;;;;5070452;28;20196;-75
2021/09/22 12:55:32;;;;;;;0.20;0.20;;;17.00;99.90;;;;;;5070491;28;20606;-76